sensor_id;sensor_type;location;lat;lon;timestamp;temperature;humidity
9699;DHT22;10089;47.876;8.346;2023-08-01T00:55:52;16.30;99.90
9699;DHT22;10089;47.876;8.346;2023-08-01T00:58:20;16.30;99.90
9699;DHT22;10089;47.876;8.346;2023-08-01T01:00:46;16.20;99.90
9699;DHT22;10089;47.876;8.346;2023-08-01T01:03:12;15.90;99.90
9699;DHT22;10089;47.876;8.346;2023-08-01T01:05:42;16.50;99.90
9699;DHT22;10089;47.876;8.346;2023-08-01T01:08:08;18.00;99.90
9699;DHT22;10089;47.876;8.346;2023-08-01T01:10:34;17.80;99.90
9699;DHT22;10089;47.876;8.346;2023-08-01T02:04:41;15.90;99.90
9699;DHT22;10089;47.876;8.346;2023-08-01T02:07:07;17.90;99.90
9699;DHT22;10089;47.876;8.346;2023-08-01T02:09:33;17.00;99.90
9699;DHT22;10089;47.876;8.346;2023-08-01T02:11:59;17.20;99.90
9699;DHT22;10089;47.876;8.346;2023-08-01T02:14:24;15.80;99.90
9699;DHT22;10089;47.876;8.346;2023-08-01T02:16:50;15.80;99.90
9699;DHT22;10089;47.876;8.346;2023-08-01T02:19:15;16.70;99.90
9699;DHT22;10089;47.876;8.346;2023-08-01T02:21:41;16.70;99.90
9699;DHT22;10089;47.876;8.346;2023-08-01T02:24:07;17.90;99.90
9699;DHT22;10089;47.876;8.346;2023-08-01T02:26:32;17.10;99.90
9699;DHT22;10089;47.876;8.346;2023-08-01T02:28:58;17.40;99.90
9699;DHT22;10089;47.876;8.346;2023-08-01T02:31:23;17.30;99.90
9699;DHT22;10089;47.876;8.346;2023-08-01T02:33:49;17.80;99.90
9699;DHT22;10089;47.876;8.346;2023-08-01T02:36:15;17.10;99.90
9699;DHT22;10089;47.876;8.346;2023-08-01T02:38:40;18.20;99.90
9699;DHT22;10089;47.876;8.346;2023-08-01T02:41:06;17.30;99.90
9699;DHT22;10089;47.876;8.346;2023-08-01T02:43:31;17.10;99.90
9699;DHT22;10089;47.876;8.346;2023-08-01T02:45:57;17.90;99.90
9699;DHT22;10089;47.876;8.346;2023-08-01T02:48:24;18.30;99.90
9699;DHT22;10089;47.876;8.346;2023-08-01T02:50:50;17.90;91.50
9699;DHT22;10089;47.876;8.346;2023-08-01T02:53:16;17.50;29.20
9699;DHT22;10089;47.876;8.346;2023-08-01T02:55:41;17.00;10.50
9699;DHT22;10089;47.876;8.346;2023-08-01T02:58:07;17.70;2.60
9699;DHT22;10089;47.876;8.346;2023-08-01T03:00:32;17.90;1.00
9699;DHT22;10089;47.876;8.346;2023-08-01T03:02:58;16.30;1.00
9699;DHT22;10089;47.876;8.346;2023-08-01T03:05:24;18.70;1.00
9699;DHT22;10089;47.876;8.346;2023-08-01T03:07:49;16.40;1.00
9699;DHT22;10089;47.876;8.346;2023-08-01T03:10:15;17.90;1.00
9699;DHT22;10089;47.876;8.346;2023-08-01T03:12:40;16.40;1.00
9699;DHT22;10089;47.876;8.346;2023-08-01T03:15:06;18.50;1.00
9699;DHT22;10089;47.876;8.346;2023-08-01T03:17:34;16.40;1.00
9699;DHT22;10089;47.876;8.346;2023-08-01T03:20:00;16.50;1.00
9699;DHT22;10089;47.876;8.346;2023-08-01T03:22:25;17.90;1.00
9699;DHT22;10089;47.876;8.346;2023-08-01T03:24:51;18.40;1.00
9699;DHT22;10089;47.876;8.346;2023-08-01T03:27:16;18.00;99.90
9699;DHT22;10089;47.876;8.346;2023-08-01T03:29:42;17.60;99.90
9699;DHT22;10089;47.876;8.346;2023-08-01T03:32:07;18.60;99.90
9699;DHT22;10089;47.876;8.346;2023-08-01T03:34:33;18.40;99.90
9699;DHT22;10089;47.876;8.346;2023-08-01T03:36:59;16.50;1.00
9699;DHT22;10089;47.876;8.346;2023-08-01T03:39:24;18.50;1.00
9699;DHT22;10089;47.876;8.346;2023-08-01T03:41:50;17.90;1.00
9699;DHT22;10089;47.876;8.346;2023-08-01T03:44:16;18.50;1.00
9699;DHT22;10089;47.876;8.346;2023-08-01T03:46:43;16.40;1.00
9699;DHT22;10089;47.876;8.346;2023-08-01T03:49:08;18.40;1.00
9699;DHT22;10089;47.876;8.346;2023-08-01T03:51:34;17.90;1.00
9699;DHT22;10089;47.876;8.346;2023-08-01T03:54:00;18.30;1.00
9699;DHT22;10089;47.876;8.346;2023-08-01T03:56:26;17.90;1.00
9699;DHT22;10089;47.876;8.346;2023-08-01T03:58:55;16.40;1.00
9699;DHT22;10089;47.876;8.346;2023-08-01T04:01:20;17.70;1.00
9699;DHT22;10089;47.876;8.346;2023-08-01T04:03:46;17.70;38.50
9699;DHT22;10089;47.876;8.346;2023-08-01T04:06:12;16.00;99.90
9699;DHT22;10089;47.876;8.346;2023-08-01T04:08:40;17.80;99.90
9699;DHT22;10089;47.876;8.346;2023-08-01T04:11:06;17.20;99.90
9699;DHT22;10089;47.876;8.346;2023-08-01T04:13:32;17.80;99.90
9699;DHT22;10089;47.876;8.346;2023-08-01T04:15:57;15.50;99.90
9699;DHT22;10089;47.876;8.346;2023-08-01T04:18:23;17.40;99.90
9699;DHT22;10089;47.876;8.346;2023-08-01T04:20:48;16.70;99.90
9699;DHT22;10089;47.876;8.346;2023-08-01T04:23:14;16.80;99.90
9699;DHT22;10089;47.876;8.346;2023-08-01T04:25:40;17.20;99.90
9699;DHT22;10089;47.876;8.346;2023-08-01T04:28:06;16.70;99.90
9699;DHT22;10089;47.876;8.346;2023-08-01T04:30:32;16.40;99.90
9699;DHT22;10089;47.876;8.346;2023-08-01T04:32:58;15.20;99.90
9699;DHT22;10089;47.876;8.346;2023-08-01T04:35:24;17.50;99.90
9699;DHT22;10089;47.876;8.346;2023-08-01T04:37:50;16.70;99.90
9699;DHT22;10089;47.876;8.346;2023-08-01T04:40:15;16.20;99.90
9699;DHT22;10089;47.876;8.346;2023-08-01T04:42:41;15.30;99.90
9699;DHT22;10089;47.876;8.346;2023-08-01T04:45:07;15.50;99.90
9699;DHT22;10089;47.876;8.346;2023-08-01T04:47:33;15.30;99.90
9699;DHT22;10089;47.876;8.346;2023-08-01T04:49:58;16.50;99.90
9699;DHT22;10089;47.876;8.346;2023-08-01T04:52:24;17.60;99.90
9699;DHT22;10089;47.876;8.346;2023-08-01T04:54:49;17.50;99.90
9699;DHT22;10089;47.876;8.346;2023-08-01T04:57:15;16.90;99.90
9699;DHT22;10089;47.876;8.346;2023-08-01T04:59:41;17.30;99.90
9699;DHT22;10089;47.876;8.346;2023-08-01T05:02:06;15.70;99.90
9699;DHT22;10089;47.876;8.346;2023-08-01T05:04:32;17.30;99.90
9699;DHT22;10089;47.876;8.346;2023-08-01T05:06:57;15.60;99.90
9699;DHT22;10089;47.876;8.346;2023-08-01T05:09:23;17.20;99.90
9699;DHT22;10089;47.876;8.346;2023-08-01T05:11:49;15.30;99.90
9699;DHT22;10089;47.876;8.346;2023-08-01T05:14:15;15.20;99.90
9699;DHT22;10089;47.876;8.346;2023-08-01T05:16:40;17.10;99.90
9699;DHT22;10089;47.876;8.346;2023-08-01T05:19:06;15.00;99.90
9699;DHT22;10089;47.876;8.346;2023-08-01T05:21:32;16.00;99.90
9699;DHT22;10089;47.876;8.346;2023-08-01T05:23:59;14.80;99.90
9699;DHT22;10089;47.876;8.346;2023-08-01T05:26:25;14.80;99.90
9699;DHT22;10089;47.876;8.346;2023-08-01T05:28:51;14.90;99.90
9699;DHT22;10089;47.876;8.346;2023-08-01T05:31:16;14.70;99.90
9699;DHT22;10089;47.876;8.346;2023-08-01T05:33:42;16.90;99.90
9699;DHT22;10089;47.876;8.346;2023-08-01T05:36:08;14.60;99.90
9699;DHT22;10089;47.876;8.346;2023-08-01T05:38:33;15.40;99.90
9699;DHT22;10089;47.876;8.346;2023-08-01T05:40:59;14.30;99.90
9699;DHT22;10089;47.876;8.346;2023-08-01T05:43:24;15.50;99.90
9699;DHT22;10089;47.876;8.346;2023-08-01T05:45:50;15.50;99.90
9699;DHT22;10089;47.876;8.346;2023-08-01T05:48:16;15.40;99.90
9699;DHT22;10089;47.876;8.346;2023-08-01T05:50:41;14.10;99.90
9699;DHT22;10089;47.876;8.346;2023-08-01T05:53:07;13.90;99.90
9699;DHT22;10089;47.876;8.346;2023-08-01T05:55:33;16.50;99.90
9699;DHT22;10089;47.876;8.346;2023-08-01T05:57:59;16.10;99.90
9699;DHT22;10089;47.876;8.346;2023-08-01T06:00:25;14.30;99.90
9699;DHT22;10089;47.876;8.346;2023-08-01T06:02:50;14.90;99.90
9699;DHT22;10089;47.876;8.346;2023-08-01T06:05:16;15.20;99.90
9699;DHT22;10089;47.876;8.346;2023-08-01T06:07:41;14.00;99.90
9699;DHT22;10089;47.876;8.346;2023-08-01T06:10:07;16.20;99.90
9699;DHT22;10089;47.876;8.346;2023-08-01T06:12:33;14.00;99.90
9699;DHT22;10089;47.876;8.346;2023-08-01T06:15:03;14.10;99.90
9699;DHT22;10089;47.876;8.346;2023-08-01T06:17:28;14.10;99.90
9699;DHT22;10089;47.876;8.346;2023-08-01T06:19:54;14.00;99.90
9699;DHT22;10089;47.876;8.346;2023-08-01T06:22:20;15.60;99.90
9699;DHT22;10089;47.876;8.346;2023-08-01T06:24:45;14.90;99.90
9699;DHT22;10089;47.876;8.346;2023-08-01T06:27:11;14.40;99.90
9699;DHT22;10089;47.876;8.346;2023-08-01T06:29:37;15.00;99.90
9699;DHT22;10089;47.876;8.346;2023-08-01T06:32:03;14.20;99.90
9699;DHT22;10089;47.876;8.346;2023-08-01T06:34:29;14.20;99.90
9699;DHT22;10089;47.876;8.346;2023-08-01T06:36:54;15.10;99.90
9699;DHT22;10089;47.876;8.346;2023-08-01T06:39:20;15.70;99.90
9699;DHT22;10089;47.876;8.346;2023-08-01T06:41:46;15.30;99.90
9699;DHT22;10089;47.876;8.346;2023-08-01T06:44:12;14.30;99.90
9699;DHT22;10089;47.876;8.346;2023-08-01T06:46:37;14.50;99.90
9699;DHT22;10089;47.876;8.346;2023-08-01T06:49:03;15.50;99.90
9699;DHT22;10089;47.876;8.346;2023-08-01T06:51:28;14.90;99.90
9699;DHT22;10089;47.876;8.346;2023-08-01T06:53:54;16.10;99.90
9699;DHT22;10089;47.876;8.346;2023-08-01T06:56:20;14.10;99.90
9699;DHT22;10089;47.876;8.346;2023-08-01T06:58:46;15.90;99.90
9699;DHT22;10089;47.876;8.346;2023-08-01T07:01:11;15.50;99.90
9699;DHT22;10089;47.876;8.346;2023-08-01T07:03:37;16.00;99.90
9699;DHT22;10089;47.876;8.346;2023-08-01T07:06:03;15.40;99.90
9699;DHT22;10089;47.876;8.346;2023-08-01T07:08:28;15.10;99.90
9699;DHT22;10089;47.876;8.346;2023-08-01T07:10:54;13.90;99.90
9699;DHT22;10089;47.876;8.346;2023-08-01T07:13:20;16.20;99.90
9699;DHT22;10089;47.876;8.346;2023-08-01T07:15:45;15.80;99.90
9699;DHT22;10089;47.876;8.346;2023-08-01T07:18:11;16.60;99.90
9699;DHT22;10089;47.876;8.346;2023-08-01T07:20:36;15.70;99.90
9699;DHT22;10089;47.876;8.346;2023-08-01T07:23:02;16.80;99.90
9699;DHT22;10089;47.876;8.346;2023-08-01T07:25:28;14.50;99.90
9699;DHT22;10089;47.876;8.346;2023-08-01T07:27:53;14.50;99.90
9699;DHT22;10089;47.876;8.346;2023-08-01T07:30:19;14.30;99.90
9699;DHT22;10089;47.876;8.346;2023-08-01T07:32:44;15.90;99.90
9699;DHT22;10089;47.876;8.346;2023-08-01T07:35:10;16.00;99.90
9699;DHT22;10089;47.876;8.346;2023-08-01T07:37:36;15.80;99.90
9699;DHT22;10089;47.876;8.346;2023-08-01T07:40:07;15.70;99.90
9699;DHT22;10089;47.876;8.346;2023-08-01T07:42:33;14.70;99.90
9699;DHT22;10089;47.876;8.346;2023-08-01T07:44:58;16.90;99.90
9699;DHT22;10089;47.876;8.346;2023-08-01T07:47:24;14.60;99.90
9699;DHT22;10089;47.876;8.346;2023-08-01T07:49:51;16.10;99.90
9699;DHT22;10089;47.876;8.346;2023-08-01T07:52:17;14.00;99.90
9699;DHT22;10089;47.876;8.346;2023-08-01T07:54:43;16.60;99.90
9699;DHT22;10089;47.876;8.346;2023-08-01T07:57:08;15.70;99.90
9699;DHT22;10089;47.876;8.346;2023-08-01T07:59:34;15.80;99.90
9699;DHT22;10089;47.876;8.346;2023-08-01T08:02:00;15.40;99.90
9699;DHT22;10089;47.876;8.346;2023-08-01T08:04:25;15.60;99.90
9699;DHT22;10089;47.876;8.346;2023-08-01T08:06:51;14.40;99.90
9699;DHT22;10089;47.876;8.346;2023-08-01T08:09:17;14.50;99.90
9699;DHT22;10089;47.876;8.346;2023-08-01T08:11:43;15.30;99.90
9699;DHT22;10089;47.876;8.346;2023-08-01T08:14:09;13.90;99.90
9699;DHT22;10089;47.876;8.346;2023-08-01T08:16:36;14.50;99.90
9699;DHT22;10089;47.876;8.346;2023-08-01T08:19:02;13.80;99.90
9699;DHT22;10089;47.876;8.346;2023-08-01T08:21:27;13.90;99.90
9699;DHT22;10089;47.876;8.346;2023-08-01T08:23:53;13.80;99.90
9699;DHT22;10089;47.876;8.346;2023-08-01T08:26:19;13.90;99.90
9699;DHT22;10089;47.876;8.346;2023-08-01T08:28:44;14.10;99.90
9699;DHT22;10089;47.876;8.346;2023-08-01T08:31:10;14.20;99.90
9699;DHT22;10089;47.876;8.346;2023-08-01T08:33:35;14.00;99.90
9699;DHT22;10089;47.876;8.346;2023-08-01T08:36:01;15.00;99.90
9699;DHT22;10089;47.876;8.346;2023-08-01T08:38:26;14.00;99.90
9699;DHT22;10089;47.876;8.346;2023-08-01T08:43:26;14.10;99.90
9699;DHT22;10089;47.876;8.346;2023-08-01T08:45:53;14.20;99.90
9699;DHT22;10089;47.876;8.346;2023-08-01T08:48:22;15.10;99.90
9699;DHT22;10089;47.876;8.346;2023-08-01T08:50:48;13.70;99.90
9699;DHT22;10089;47.876;8.346;2023-08-01T08:53:14;14.60;99.90
9699;DHT22;10089;47.876;8.346;2023-08-01T08:55:41;14.10;99.90
9699;DHT22;10089;47.876;8.346;2023-08-01T08:58:07;14.20;99.90
9699;DHT22;10089;47.876;8.346;2023-08-01T09:00:35;14.20;99.90
9699;DHT22;10089;47.876;8.346;2023-08-01T09:03:01;14.20;99.90
9699;DHT22;10089;47.876;8.346;2023-08-01T09:05:27;14.10;99.90
9699;DHT22;10089;47.876;8.346;2023-08-01T09:07:57;14.00;99.90
9699;DHT22;10089;47.876;8.346;2023-08-01T09:10:24;14.40;99.90
9699;DHT22;10089;47.876;8.346;2023-08-01T09:12:50;15.10;99.90
9699;DHT22;10089;47.876;8.346;2023-08-01T09:15:16;14.10;99.90
9699;DHT22;10089;47.876;8.346;2023-08-01T09:17:53;14.10;99.90
9699;DHT22;10089;47.876;8.346;2023-08-01T09:20:20;14.30;99.90
9699;DHT22;10089;47.876;8.346;2023-08-01T09:22:47;14.60;99.90
9699;DHT22;10089;47.876;8.346;2023-08-01T09:25:13;14.70;99.90
9699;DHT22;10089;47.876;8.346;2023-08-01T09:27:39;16.30;99.90
9699;DHT22;10089;47.876;8.346;2023-08-01T09:30:10;16.40;99.90
9699;DHT22;10089;47.876;8.346;2023-08-01T09:32:37;15.30;99.90
9699;DHT22;10089;47.876;8.346;2023-08-01T09:35:03;15.50;99.90
9699;DHT22;10089;47.876;8.346;2023-08-01T09:37:42;15.70;99.90
9699;DHT22;10089;47.876;8.346;2023-08-01T09:40:09;17.40;99.90
9699;DHT22;10089;47.876;8.346;2023-08-01T09:42:43;16.30;99.90
9699;DHT22;10089;47.876;8.346;2023-08-01T09:45:16;16.10;99.90
9699;DHT22;10089;47.876;8.346;2023-08-01T09:47:43;16.50;99.90
9699;DHT22;10089;47.876;8.346;2023-08-01T09:50:10;18.20;99.90
9699;DHT22;10089;47.876;8.346;2023-08-01T09:52:36;17.70;99.90
9699;DHT22;10089;47.876;8.346;2023-08-01T09:55:02;17.00;99.90
9699;DHT22;10089;47.876;8.346;2023-08-01T09:57:30;17.10;99.90
9699;DHT22;10089;47.876;8.346;2023-08-01T09:59:57;18.50;99.90
9699;DHT22;10089;47.876;8.346;2023-08-01T10:02:25;18.40;99.90
9699;DHT22;10089;47.876;8.346;2023-08-01T10:04:57;17.50;99.90
9699;DHT22;10089;47.876;8.346;2023-08-01T10:07:26;18.60;99.90
9699;DHT22;10089;47.876;8.346;2023-08-01T10:09:54;18.40;99.90
9699;DHT22;10089;47.876;8.346;2023-08-01T10:12:22;17.30;99.90
9699;DHT22;10089;47.876;8.346;2023-08-01T10:14:50;16.80;99.90
9699;DHT22;10089;47.876;8.346;2023-08-01T10:17:16;17.20;99.90
9699;DHT22;10089;47.876;8.346;2023-08-01T10:19:43;17.90;99.90
9699;DHT22;10089;47.876;8.346;2023-08-01T10:22:10;17.80;99.90
9699;DHT22;10089;47.876;8.346;2023-08-01T10:24:37;17.80;99.90
9699;DHT22;10089;47.876;8.346;2023-08-01T10:27:13;18.30;99.90
9699;DHT22;10089;47.876;8.346;2023-08-01T10:29:39;18.10;99.90
9699;DHT22;10089;47.876;8.346;2023-08-01T10:32:07;18.70;99.90
9699;DHT22;10089;47.876;8.346;2023-08-01T10:34:32;17.90;99.90
9699;DHT22;10089;47.876;8.346;2023-08-01T10:36:59;18.90;99.90
9699;DHT22;10089;47.876;8.346;2023-08-01T10:39:26;18.00;99.90
9699;DHT22;10089;47.876;8.346;2023-08-01T10:42:05;18.70;99.90
9699;DHT22;10089;47.876;8.346;2023-08-01T10:44:31;17.50;99.90
9699;DHT22;10089;47.876;8.346;2023-08-01T10:47:03;17.40;99.90
9699;DHT22;10089;47.876;8.346;2023-08-01T10:52:03;17.70;99.90
9699;DHT22;10089;47.876;8.346;2023-08-01T10:54:29;17.70;99.90
9699;DHT22;10089;47.876;8.346;2023-08-01T10:56:58;19.70;99.90
9699;DHT22;10089;47.876;8.346;2023-08-01T10:59:24;17.40;99.90
9699;DHT22;10089;47.876;8.346;2023-08-01T11:01:57;17.50;99.90
9699;DHT22;10089;47.876;8.346;2023-08-01T11:04:23;17.90;99.90
9699;DHT22;10089;47.876;8.346;2023-08-01T11:06:51;18.10;99.90
9699;DHT22;10089;47.876;8.346;2023-08-01T11:09:25;20.20;99.90
9699;DHT22;10089;47.876;8.346;2023-08-01T11:11:52;20.60;99.90
9699;DHT22;10089;47.876;8.346;2023-08-01T11:14:26;19.10;99.90
9699;DHT22;10089;47.876;8.346;2023-08-01T11:16:54;19.30;99.90
9699;DHT22;10089;47.876;8.346;2023-08-01T11:19:24;20.50;99.90
9699;DHT22;10089;47.876;8.346;2023-08-01T11:21:51;19.30;99.90
9699;DHT22;10089;47.876;8.346;2023-08-01T11:24:18;20.70;99.90
9699;DHT22;10089;47.876;8.346;2023-08-01T11:26:45;19.50;1.00
9699;DHT22;10089;47.876;8.346;2023-08-01T11:29:12;21.10;1.00
9699;DHT22;10089;47.876;8.346;2023-08-01T11:31:38;20.20;1.00
9699;DHT22;10089;47.876;8.346;2023-08-01T11:34:04;20.50;41.40
9699;DHT22;10089;47.876;8.346;2023-08-01T11:36:30;19.70;1.00
9699;DHT22;10089;47.876;8.346;2023-08-01T11:38:57;19.70;1.00
9699;DHT22;10089;47.876;8.346;2023-08-01T11:41:25;19.60;1.00
9699;DHT22;10089;47.876;8.346;2023-08-01T11:43:51;19.80;1.00
9699;DHT22;10089;47.876;8.346;2023-08-01T11:46:17;19.80;1.00
9699;DHT22;10089;47.876;8.346;2023-08-01T11:48:46;21.30;1.00
9699;DHT22;10089;47.876;8.346;2023-08-01T11:51:12;19.90;1.00
9699;DHT22;10089;47.876;8.346;2023-08-01T11:53:38;19.20;1.00
9699;DHT22;10089;47.876;8.346;2023-08-01T11:56:07;20.20;88.10
9699;DHT22;10089;47.876;8.346;2023-08-01T11:58:40;20.40;33.70
9699;DHT22;10089;47.876;8.346;2023-08-01T12:03:32;19.60;99.90
9699;DHT22;10089;47.876;8.346;2023-08-01T12:06:06;19.30;42.90
9699;DHT22;10089;47.876;8.346;2023-08-01T12:08:34;19.30;99.90
9699;DHT22;10089;47.876;8.346;2023-08-01T12:11:00;20.70;99.90
9699;DHT22;10089;47.876;8.346;2023-08-01T12:13:26;21.40;36.40
9699;DHT22;10089;47.876;8.346;2023-08-01T12:15:54;20.90;1.00
9699;DHT22;10089;47.876;8.346;2023-08-01T12:18:27;19.80;1.00
9699;DHT22;10089;47.876;8.346;2023-08-01T12:20:53;20.60;1.00
9699;DHT22;10089;47.876;8.346;2023-08-01T12:23:19;19.00;1.00
9699;DHT22;10089;47.876;8.346;2023-08-01T12:25:46;19.80;14.10
9699;DHT22;10089;47.876;8.346;2023-08-01T12:28:14;19.40;7.30
9699;DHT22;10089;47.876;8.346;2023-08-01T12:30:40;18.50;95.80
9699;DHT22;10089;47.876;8.346;2023-08-01T12:33:09;18.20;99.90
9699;DHT22;10089;47.876;8.346;2023-08-01T12:35:39;20.10;99.90
9699;DHT22;10089;47.876;8.346;2023-08-01T12:38:05;19.60;49.80
9699;DHT22;10089;47.876;8.346;2023-08-01T12:40:31;18.60;42.90
9699;DHT22;10089;47.876;8.346;2023-08-01T12:42:56;20.20;1.40
9699;DHT22;10089;47.876;8.346;2023-08-01T12:45:22;18.70;68.40
9699;DHT22;10089;47.876;8.346;2023-08-01T12:47:49;20.70;1.00
9699;DHT22;10089;47.876;8.346;2023-08-01T12:50:15;20.30;17.40
9699;DHT22;10089;47.876;8.346;2023-08-01T12:52:41;18.20;49.90
9699;DHT22;10089;47.876;8.346;2023-08-01T12:55:07;18.10;1.00
9699;DHT22;10089;47.876;8.346;2023-08-01T12:57:33;18.30;96.30
9699;DHT22;10089;47.876;8.346;2023-08-01T12:59:59;19.10;92.70
9699;DHT22;10089;47.876;8.346;2023-08-01T13:02:25;20.60;17.20
9699;DHT22;10089;47.876;8.346;2023-08-01T13:04:51;19.50;1.00
9699;DHT22;10089;47.876;8.346;2023-08-01T13:07:17;21.50;1.00
9699;DHT22;10089;47.876;8.346;2023-08-01T13:09:42;20.10;1.00
9699;DHT22;10089;47.876;8.346;2023-08-01T13:12:08;20.50;1.00
9699;DHT22;10089;47.876;8.346;2023-08-01T13:14:33;20.80;99.90
9699;DHT22;10089;47.876;8.346;2023-08-01T13:16:59;20.60;99.90
9699;DHT22;10089;47.876;8.346;2023-08-01T13:19:25;20.80;1.00
9699;DHT22;10089;47.876;8.346;2023-08-01T13:21:51;21.00;99.90
9699;DHT22;10089;47.876;8.346;2023-08-01T13:24:17;21.50;1.00
9699;DHT22;10089;47.876;8.346;2023-08-01T13:26:42;21.60;99.90
9699;DHT22;10089;47.876;8.346;2023-08-01T13:29:08;20.90;1.00
9699;DHT22;10089;47.876;8.346;2023-08-01T13:31:33;21.50;1.00
9699;DHT22;10089;47.876;8.346;2023-08-01T13:33:59;21.10;1.00
9699;DHT22;10089;47.876;8.346;2023-08-01T13:36:25;21.40;99.90
9699;DHT22;10089;47.876;8.346;2023-08-01T13:38:50;21.50;30.00
9699;DHT22;10089;47.876;8.346;2023-08-01T13:41:16;21.80;1.00
9699;DHT22;10089;47.876;8.346;2023-08-01T13:43:41;22.00;99.90
9699;DHT22;10089;47.876;8.346;2023-08-01T13:46:15;21.90;99.90
9699;DHT22;10089;47.876;8.346;2023-08-01T13:48:41;21.70;99.90
9699;DHT22;10089;47.876;8.346;2023-08-01T13:51:07;21.40;1.00
9699;DHT22;10089;47.876;8.346;2023-08-01T13:53:33;21.80;1.00
9699;DHT22;10089;47.876;8.346;2023-08-01T13:55:59;22.20;99.90
9699;DHT22;10089;47.876;8.346;2023-08-01T13:58:25;21.00;1.00
9699;DHT22;10089;47.876;8.346;2023-08-01T14:00:50;21.90;1.00
9699;DHT22;10089;47.876;8.346;2023-08-01T14:03:16;20.80;1.00
9699;DHT22;10089;47.876;8.346;2023-08-01T14:05:42;22.30;1.00
9699;DHT22;10089;47.876;8.346;2023-08-01T14:08:07;20.60;1.00
9699;DHT22;10089;47.876;8.346;2023-08-01T14:10:33;21.60;1.00
9699;DHT22;10089;47.876;8.346;2023-08-01T14:12:59;20.60;1.00
9699;DHT22;10089;47.876;8.346;2023-08-01T14:15:25;21.60;1.00
9699;DHT22;10089;47.876;8.346;2023-08-01T14:17:51;21.20;99.90
9699;DHT22;10089;47.876;8.346;2023-08-01T14:20:18;21.00;99.90
9699;DHT22;10089;47.876;8.346;2023-08-01T14:22:44;21.00;1.00
9699;DHT22;10089;47.876;8.346;2023-08-01T14:25:10;22.70;1.00
9699;DHT22;10089;47.876;8.346;2023-08-01T14:27:36;20.70;1.00
9699;DHT22;10089;47.876;8.346;2023-08-01T14:30:01;20.50;1.00
9699;DHT22;10089;47.876;8.346;2023-08-01T14:32:28;20.50;99.90
9699;DHT22;10089;47.876;8.346;2023-08-01T14:34:54;21.00;99.90
9699;DHT22;10089;47.876;8.346;2023-08-01T14:37:19;20.80;1.00
9699;DHT22;10089;47.876;8.346;2023-08-01T14:39:49;21.10;99.90
9699;DHT22;10089;47.876;8.346;2023-08-01T14:42:15;21.00;25.70
9699;DHT22;10089;47.876;8.346;2023-08-01T14:44:41;21.00;1.00
9699;DHT22;10089;47.876;8.346;2023-08-01T14:47:06;21.40;99.90
9699;DHT22;10089;47.876;8.346;2023-08-01T14:49:32;21.30;99.90
9699;DHT22;10089;47.876;8.346;2023-08-01T14:51:58;21.30;99.90
9699;DHT22;10089;47.876;8.346;2023-08-01T14:54:23;21.40;1.00
9699;DHT22;10089;47.876;8.346;2023-08-01T14:56:51;21.60;99.90
9699;DHT22;10089;47.876;8.346;2023-08-01T14:59:17;20.80;99.90
9699;DHT22;10089;47.876;8.346;2023-08-01T15:01:42;21.20;99.90
9699;DHT22;10089;47.876;8.346;2023-08-01T15:04:08;22.50;99.90
9699;DHT22;10089;47.876;8.346;2023-08-01T15:06:34;20.70;1.00
9699;DHT22;10089;47.876;8.346;2023-08-01T15:08:59;21.20;15.40
9699;DHT22;10089;47.876;8.346;2023-08-01T15:11:25;21.00;1.00
9699;DHT22;10089;47.876;8.346;2023-08-01T15:13:50;20.90;1.00
9699;DHT22;10089;47.876;8.346;2023-08-01T15:16:16;21.00;99.90
9699;DHT22;10089;47.876;8.346;2023-08-01T15:18:41;21.20;1.00
9699;DHT22;10089;47.876;8.346;2023-08-01T15:21:07;21.00;99.90
9699;DHT22;10089;47.876;8.346;2023-08-01T15:23:33;20.70;99.90
9699;DHT22;10089;47.876;8.346;2023-08-01T15:25:59;20.80;1.00
9699;DHT22;10089;47.876;8.346;2023-08-01T15:28:25;20.70;1.00
9699;DHT22;10089;47.876;8.346;2023-08-01T15:31:08;20.80;99.90
9699;DHT22;10089;47.876;8.346;2023-08-01T15:33:36;20.80;9.60
9699;DHT22;10089;47.876;8.346;2023-08-01T15:36:06;20.70;1.00
9699;DHT22;10089;47.876;8.346;2023-08-01T15:38:33;21.00;99.90
9699;DHT22;10089;47.876;8.346;2023-08-01T15:40:59;20.50;1.00
9699;DHT22;10089;47.876;8.346;2023-08-01T15:43:29;20.30;99.90
9699;DHT22;10089;47.876;8.346;2023-08-01T15:45:55;20.40;99.90
9699;DHT22;10089;47.876;8.346;2023-08-01T15:48:21;20.50;99.90
9699;DHT22;10089;47.876;8.346;2023-08-01T15:50:46;20.20;99.90
9699;DHT22;10089;47.876;8.346;2023-08-01T15:53:12;20.10;99.90
9699;DHT22;10089;47.876;8.346;2023-08-01T15:55:37;21.30;1.00
9699;DHT22;10089;47.876;8.346;2023-08-01T15:58:03;20.20;1.00
9699;DHT22;10089;47.876;8.346;2023-08-01T16:00:29;20.50;1.00
9699;DHT22;10089;47.876;8.346;2023-08-01T16:02:54;21.00;1.00
9699;DHT22;10089;47.876;8.346;2023-08-01T16:05:20;20.00;1.00
9699;DHT22;10089;47.876;8.346;2023-08-01T16:07:45;19.70;99.90
9699;DHT22;10089;47.876;8.346;2023-08-01T16:10:11;20.20;1.00
9699;DHT22;10089;47.876;8.346;2023-08-01T16:12:36;19.60;99.90
9699;DHT22;10089;47.876;8.346;2023-08-01T16:15:02;21.00;1.00
9699;DHT22;10089;47.876;8.346;2023-08-01T16:17:28;19.40;99.90
9699;DHT22;10089;47.876;8.346;2023-08-01T16:19:53;20.10;1.00
9699;DHT22;10089;47.876;8.346;2023-08-01T16:22:20;19.30;20.10
9699;DHT22;10089;47.876;8.346;2023-08-01T16:24:46;20.00;99.90
9699;DHT22;10089;47.876;8.346;2023-08-01T16:27:12;19.70;1.00
9699;DHT22;10089;47.876;8.346;2023-08-01T16:29:37;20.70;1.00
9699;DHT22;10089;47.876;8.346;2023-08-01T16:32:03;18.90;1.00
9699;DHT22;10089;47.876;8.346;2023-08-01T16:34:29;19.00;1.00
9699;DHT22;10089;47.876;8.346;2023-08-01T16:36:54;19.40;99.90
9699;DHT22;10089;47.876;8.346;2023-08-01T16:39:20;20.70;99.90
9699;DHT22;10089;47.876;8.346;2023-08-01T16:41:46;20.40;99.90
9699;DHT22;10089;47.876;8.346;2023-08-01T16:44:12;19.50;99.90
9699;DHT22;10089;47.876;8.346;2023-08-01T16:46:38;19.20;99.90
9699;DHT22;10089;47.876;8.346;2023-08-01T16:49:03;19.20;1.00
9699;DHT22;10089;47.876;8.346;2023-08-01T16:51:29;19.50;99.90
9699;DHT22;10089;47.876;8.346;2023-08-01T16:53:54;19.30;99.90
9699;DHT22;10089;47.876;8.346;2023-08-01T16:56:21;20.10;1.00
9699;DHT22;10089;47.876;8.346;2023-08-01T16:58:47;18.80;99.90
9699;DHT22;10089;47.876;8.346;2023-08-01T17:01:12;18.90;1.00
9699;DHT22;10089;47.876;8.346;2023-08-01T17:03:38;20.40;1.00
9699;DHT22;10089;47.876;8.346;2023-08-01T17:06:04;18.60;1.00
9699;DHT22;10089;47.876;8.346;2023-08-01T17:08:30;18.80;99.90
9699;DHT22;10089;47.876;8.346;2023-08-01T17:10:55;20.30;99.90
9699;DHT22;10089;47.876;8.346;2023-08-01T17:13:22;19.30;99.90
9699;DHT22;10089;47.876;8.346;2023-08-01T17:15:48;18.80;1.00
9699;DHT22;10089;47.876;8.346;2023-08-01T17:18:13;20.30;1.00
9699;DHT22;10089;47.876;8.346;2023-08-01T17:20:40;19.10;1.00
9699;DHT22;10089;47.876;8.346;2023-08-01T17:23:05;18.50;1.00
9699;DHT22;10089;47.876;8.346;2023-08-01T17:25:31;18.20;99.90
9699;DHT22;10089;47.876;8.346;2023-08-01T17:27:57;19.20;1.00
9699;DHT22;10089;47.876;8.346;2023-08-01T17:30:22;18.80;1.00
9699;DHT22;10089;47.876;8.346;2023-08-01T17:32:48;19.40;1.00
9699;DHT22;10089;47.876;8.346;2023-08-01T17:35:15;19.50;1.00
9699;DHT22;10089;47.876;8.346;2023-08-01T17:42:49;18.10;1.00